Flight Track Log - Related Links

Times and Time Zones

All times are in EDT time to prevent confusion due to time zone crossing. See the THY1657 flight status page for this flight to view local times or setup timezone preferences in your user account.

Time Position Orientation Groundspeed Altitude Reporting Facility
EDT Latitude Longitude Course Direction KTS MPH feet Rate Location/Type
Thu 08:34:00 PM 37.6652 34.5968 322° Northwest  Level Estimated
Thu 08:35:00 PM 37.7503 34.5104 321° Northwest  Level Estimated
Thu 08:36:00 PM 37.8354 34.4239 321° Northwest  Level Estimated
Thu 08:37:00 PM 37.9203 34.3372 321° Northwest  Level Estimated
Thu 08:38:00 PM 38.0052 34.2503 321° Northwest  Level Estimated
Thu 08:39:00 PM 38.0901 34.1631 321° Northwest  Level Estimated
Thu 08:40:00 PM 38.1749 34.0758 321° Northwest  Level Estimated
Thu 08:41:00 PM 38.2596 33.9883 321° Northwest  Level Estimated
Thu 08:42:00 PM 38.3442 33.9005 321° Northwest  Level Estimated
Thu 08:43:00 PM 38.4288 33.8126 321° Northwest  Level Estimated
Thu 08:44:00 PM 38.5133 33.7244 321° Northwest  Level Estimated
Thu 08:45:00 PM 38.5978 33.6361 321° Northwest  Level Estimated
Thu 08:46:00 PM 38.6822 33.5475 321° Northwest  Level Estimated
Thu 08:47:00 PM 38.7665 33.4587 321° Northwest  Level Estimated
Thu 08:48:00 PM 38.8507 33.3697 321° Northwest  Level Estimated
Thu 08:49:00 PM 38.9349 33.2805 321° Northwest  Level Estimated
Thu 08:50:00 PM 39.0191 33.1911 320° Northwest  Level Estimated
Thu 08:51:00 PM 39.1031 33.1015 320° Northwest  Level Estimated
Thu 08:52:00 PM 39.1871 33.0117 320° Northwest  Level Estimated
Thu 08:53:00 PM 39.2710 32.9216 320° Northwest  Level Estimated
Thu 08:54:00 PM 39.3548 32.8313 320° Northwest  Level Estimated
Thu 08:55:00 PM 39.4386 32.7408 320° Northwest  Level Estimated
Thu 08:56:00 PM 39.5223 32.6502 320° Northwest  Level Estimated
Thu 08:57:00 PM 39.6059 32.5592 320° Northwest  Level Estimated
Thu 08:58:00 PM 39.6895 32.4681 320° Northwest  Level Estimated
Thu 08:59:00 PM 39.7730 32.3767 320° Northwest  Level Estimated
Thu 09:00:00 PM 39.8564 32.2851 320° Northwest  Level Estimated
Thu 09:01:00 PM 39.9398 32.1933 320° Northwest  Level Estimated
Thu 09:02:00 PM 40.0230 32.1013 320° Northwest  Level Estimated
Thu 09:03:00 PM 40.1062 32.0090 320° Northwest  Level Estimated
Thu 09:04:00 PM 40.1894 31.9166 320° Northwest  Level Estimated
Thu 09:05:00 PM 40.2724 31.8239 320° Northwest  Level Estimated
Thu 09:06:00 PM 40.3554 31.7309 320° Northwest  Level Estimated
Thu 09:07:00 PM 40.4383 31.6378 319° Northwest  Level Estimated
Thu 09:08:00 PM 40.5211 31.5444 319° Northwest  Level Estimated
Thu 09:09:00 PM 40.6039 31.4507 319° Northwest  Level Estimated
Thu 09:10:00 PM 40.6865 31.3569 319° Northwest  Level Estimated
Thu 09:11:00 PM 40.7691 31.2628 319° Northwest  Level Estimated
Thu 09:12:00 PM 40.8517 31.1685 319° Northwest  Level Estimated
Thu 09:13:00 PM 40.9341 31.0739 319° Northwest  Level Estimated
Thu 09:14:00 PM 41.0165 30.9791 319° Northwest  Level Estimated
Thu 09:15:00 PM 41.0988 30.8841 319° Northwest  Level Estimated
Thu 09:16:00 PM 41.1810 30.7888 319° Northwest  Level Estimated
Thu 09:17:00 PM 41.2631 30.6933 319° Northwest  Level Estimated
Thu 09:18:00 PM 41.3452 30.5975 319° Northwest  Level Estimated
Thu 09:19:00 PM 41.4272 30.5016 319° Northwest  Level Estimated
Thu 09:20:00 PM 41.5090 30.4053 319° Northwest  Level Estimated
Thu 09:21:00 PM 41.5909 30.3088 319° Northwest  Level Estimated
Thu 09:22:00 PM 41.6726 30.2121 319° Northwest  Level Estimated
Thu 09:23:00 PM 41.7542 30.1152 318° Northwest  Level Estimated
Thu 09:24:00 PM 41.8358 30.0179 318° Northwest  Level Estimated
Thu 09:25:00 PM 41.9173 29.9205 318° Northwest  Level Estimated
Thu 09:26:00 PM 41.9987 29.8228 318° Northwest  Level Estimated
Thu 09:27:00 PM 42.0800 29.7248 318° Northwest  Level Estimated
Thu 09:28:00 PM 42.1613 29.6266 318° Northwest  Level Estimated
Thu 09:29:00 PM 42.2424 29.5281 318° Northwest  Level Estimated
Thu 09:30:00 PM 42.3235 29.4294 318° Northwest  Level Estimated
Thu 09:31:00 PM 42.4045 29.3304 318° Northwest  Level Estimated
Thu 09:32:00 PM 42.4854 29.2312 318° Northwest  Level Estimated
Thu 09:33:00 PM 42.5662 29.1317 318° Northwest  Level Estimated
Thu 09:34:00 PM 42.6469 29.0319 318° Northwest  Level Estimated
Thu 09:35:00 PM 42.7276 28.9319 318° Northwest  Level Estimated
Thu 09:36:00 PM 42.8082 28.8317 318° Northwest  Level Estimated
Thu 09:37:00 PM 42.8886 28.7311 318° Northwest  Level Estimated
Thu 09:38:00 PM 42.9690 28.6303 317° Northwest  Level Estimated
Thu 09:39:00 PM 43.0493 28.5293 317° Northwest  Level Estimated
Thu 09:40:00 PM 43.1295 28.4280 317° Northwest  Level Estimated
Thu 09:41:00 PM 43.2096 28.3264 317° Northwest  Level Estimated
Thu 09:42:00 PM 43.2896 28.2245 317° Northwest  Level Estimated
Thu 09:43:00 PM 43.3695 28.1224 317° Northwest  Level Estimated
Thu 09:44:00 PM 43.4494 28.0200 317° Northwest  Level Estimated
Thu 09:45:00 PM 43.5291 27.9174 317° Northwest  Level Estimated
Thu 09:46:00 PM 43.6088 27.8144 317° Northwest  Level Estimated
Thu 09:47:00 PM 43.6884 27.7112 317° Northwest  Level Estimated
Thu 09:48:00 PM 43.7678 27.6078 317° Northwest  Level Estimated
Thu 09:49:00 PM 43.8472 27.5040 317° Northwest  Level Estimated
Thu 09:50:00 PM 43.9265 27.4000 317° Northwest  Level Estimated
Thu 09:51:00 PM 44.0057 27.2957 317° Northwest  Level Estimated
Thu 09:52:00 PM 44.0848 27.1911 316° Northwest  Level Estimated
Thu 09:53:00 PM 44.1638 27.0862 316° Northwest  Level Estimated
Thu 09:54:00 PM 44.2427 26.9811 316° Northwest  Level Estimated
Thu 09:55:00 PM 44.3215 26.8756 316° Northwest  Level Estimated
Thu 09:56:00 PM 44.4002 26.7699 316° Northwest  Level Estimated
Thu 09:57:00 PM 44.4788 26.6639 316° Northwest  Level Estimated
Thu 09:58:00 PM 44.5573 26.5576 316° Northwest  Level Estimated
Thu 09:59:00 PM 44.6357 26.4511 316° Northwest  Level Estimated
Thu 10:00:00 PM 44.7140 26.3442 316° Northwest  Level Estimated
Thu 10:01:00 PM 44.7922 26.2371 316° Northwest  Level Estimated
Thu 10:02:00 PM 44.8703 26.1296 316° Northwest  Level Estimated
Thu 10:03:00 PM 44.9484 26.0219 316° Northwest  Level Estimated
Thu 10:04:00 PM 45.0263 25.9139 316° Northwest  Level Estimated
Thu 10:05:00 PM 45.1041 25.8056 316° Northwest  Level Estimated
Thu 10:06:00 PM 45.1818 25.6970 315° West  Level Estimated
Thu 10:07:00 PM 45.2594 25.5880 315° West  Level Estimated
Thu 10:08:00 PM 45.3369 25.4788 315° West  Level Estimated
Thu 10:09:00 PM 45.4143 25.3693 315° West  Level Estimated
Thu 10:10:00 PM 45.4916 25.2595 315° West  Level Estimated
Thu 10:11:00 PM 45.5687 25.1494 315° West  Level Estimated
Thu 10:12:00 PM 45.6458 25.0390 315° West  Level Estimated
Thu 10:13:00 PM 45.7228 24.9283 315° West  Level Estimated
Thu 10:14:00 PM 45.7997 24.8173 315° West  Level Estimated
Thu 10:15:00 PM 45.8764 24.7059 315° West  Level Estimated
Thu 10:16:00 PM 45.9531 24.5943 315° West  Level Estimated
Thu 10:17:00 PM 46.0296 24.4824 315° West  Level Estimated
Thu 10:18:00 PM 46.1060 24.3701 315° West  Level Estimated
Thu 10:19:00 PM 46.1824 24.2575 314° West  Level Estimated
Thu 10:20:00 PM 46.2586 24.1447 314° West  Level Estimated
Thu 10:21:00 PM 46.3347 24.0315 314° West  Level Estimated
Thu 10:22:00 PM 46.4107 23.9180 314° West  Level Estimated
Thu 10:23:00 PM 46.4865 23.8041 314° West  Level Estimated
Thu 10:24:00 PM 46.5623 23.6900 314° West  Level Estimated
Thu 10:25:00 PM 46.6379 23.5756 314° West  Level Estimated
Thu 10:26:00 PM 46.7135 23.4608 314° West  Level Estimated
Thu 10:27:00 PM 46.7889 23.3457 314° West  Level Estimated
Thu 10:28:00 PM 46.8642 23.2302 314° West  Level Estimated
Thu 10:29:00 PM 46.9394 23.1145 314° West  Level Estimated
Thu 10:30:00 PM 47.0144 22.9984 314° West  Level Estimated
Thu 10:31:00 PM 47.0894 22.8820 313° West  Level Estimated
Thu 10:32:00 PM 47.1642 22.7653 313° West  Level Estimated
Thu 10:33:00 PM 47.2389 22.6482 313° West  Level Estimated
Thu 10:34:00 PM 47.3135 22.5308 313° West  Level Estimated
Thu 10:35:00 PM 47.3880 22.4131 313° West  Level Estimated
Thu 10:36:00 PM 47.4623 22.2951 313° West  Level Estimated
Thu 10:37:00 PM 47.5366 22.1767 313° West  Level Estimated
Thu 10:38:00 PM 47.6107 22.0580 313° West  Level Estimated
Thu 10:39:00 PM 47.6847 21.9389 313° West  Level Estimated
Thu 10:40:00 PM 47.7585 21.8195 313° West  Level Estimated
Thu 10:41:00 PM 47.8323 21.6998 313° West  Level Estimated
Thu 10:42:00 PM 47.9059 21.5797 312° West  Level Estimated
Thu 10:43:00 PM 47.9794 21.4593 312° West  Level Estimated
Thu 10:44:00 PM 48.0527 21.3385 312° West  Level Estimated
Thu 10:45:00 PM 48.1260 21.2174 312° West  Level Estimated
Thu 10:46:00 PM 48.1991 21.0960 312° West  Level Estimated
Thu 10:47:00 PM 48.2720 20.9742 312° West  Level Estimated
Thu 10:48:00 PM 48.3449 20.8520 312° West  Level Estimated
Thu 10:49:00 PM 48.4176 20.7295 312° West  Level Estimated
Thu 10:50:00 PM 48.4902 20.6067 312° West  Level Estimated
Thu 10:51:00 PM 48.5627 20.4835 312° West  Level Estimated
Thu 10:52:00 PM 48.6350 20.3599 312° West  Level Estimated
Thu 10:53:00 PM 48.7072 20.2360 311° West  Level Estimated
Thu 10:54:00 PM 48.7793 20.1118 311° West  Level Estimated
Thu 10:55:00 PM 48.8512 19.9872 311° West  Level Estimated
Thu 10:56:00 PM 48.9230 19.8622 311° West  Level Estimated
Thu 10:57:00 PM 48.9946 19.7369 311° West  Level Estimated
Thu 10:58:00 PM 49.0662 19.6112 311° West  Level Estimated
Thu 10:59:00 PM 49.1375 19.4851 311° West  Level Estimated
Thu 11:00:00 PM 49.2088 19.3587 311° West  Level Estimated
Thu 11:01:00 PM 49.2799 19.2319 311° West  Level Estimated
Thu 11:02:00 PM 49.3509 19.1047 311° West  Level Estimated
Thu 11:03:00 PM 49.4217 18.9772 311° West  Level Estimated
Thu 11:04:00 PM 49.4924 18.8493 310° West  Level Estimated
Thu 11:05:00 PM 49.5629 18.7211 310° West  Level Estimated
Thu 11:06:00 PM 49.6333 18.5924 310° West  Level Estimated
Thu 11:07:00 PM 49.7036 18.4634 310° West  Level Estimated
Thu 11:08:00 PM 49.7737 18.3341 310° West  Level Estimated
Thu 11:09:00 PM 49.8437 18.2043 310° West  Level Estimated
Thu 11:10:00 PM 49.9135 18.0742 310° West  Level Estimated
Thu 11:11:00 PM 49.9832 17.9437 310° West  Level Estimated
Thu 11:12:00 PM 50.0527 17.8128 310° West  Level Estimated
Thu 11:13:00 PM 50.1221 17.6816 310° West  Level Estimated
Thu 11:14:00 PM 50.1913 17.5499 309° West  Level Estimated
Thu 11:15:00 PM 50.2604 17.4179 309° West  Level Estimated
Thu 11:16:00 PM 50.3294 17.2855 309° West  Level Estimated
Thu 11:17:00 PM 50.3982 17.1527 309° West  Level Estimated
Thu 11:18:00 PM 50.4668 17.0195 309° West  Level Estimated
Thu 11:19:00 PM 50.5353 16.8860 309° West  Level Estimated
Thu 11:20:00 PM 50.6036 16.7520 309° West  Level Estimated
Thu 11:21:00 PM 50.6718 16.6177 309° West  Level Estimated
Thu 11:22:00 PM 50.7398 16.4830 309° West  Level Estimated
Thu 11:23:00 PM 50.8077 16.3478 309° West  Level Estimated
Thu 11:24:00 PM 50.8754 16.2123 308° West  Level Estimated
Thu 11:25:00 PM 50.9430 16.0764 308° West  Level Estimated
Thu 11:26:00 PM 51.0104 15.9401 308° West  Level Estimated
Thu 11:27:00 PM 51.0776 15.8034 308° West  Level Estimated
Thu 11:28:00 PM 51.1447 15.6663 308° West  Level Estimated
Thu 11:29:00 PM 51.2116 15.5288 308° West  Level Estimated
Thu 11:30:00 PM 51.2784 15.3910 308° West  Level Estimated
Thu 11:31:00 PM 51.3449 15.2527 308° West  Level Estimated
Thu 11:32:00 PM 51.4114 15.1140 308° West  Level Estimated
Thu 11:33:00 PM 51.4776 14.9749 307° West  Level Estimated
Thu 11:34:00 PM 51.5437 14.8354 307° West  Level Estimated
Thu 11:35:00 PM 51.6097 14.6955 307° West  Level Estimated
Thu 11:36:00 PM 51.6754 14.5552 307° West  Level Estimated
Thu 11:37:00 PM 51.7410 14.4144 307° West  Level Estimated
Thu 11:38:00 PM 51.8065 14.2733 307° West  Level Estimated
Thu 11:39:00 PM 51.8717 14.1318 307° West  Level Estimated
Thu 11:40:00 PM 51.9368 13.9898 307° West  Level Estimated
Thu 11:41:00 PM 52.0017 13.8475 307° West  Level Estimated
Thu 11:42:00 PM 52.0665 13.7047 306° West  Level Estimated
Thu 11:43:00 PM 52.1311 13.5615 306° West  Level Estimated
Thu 11:44:00 PM 52.1954 13.4179 306° West  Level Estimated
Thu 11:45:00 PM 52.2597 13.2739 306° West  Level Estimated
Thu 11:46:00 PM 52.3237 13.1294 306° West  Level Estimated
Thu 11:47:00 PM 52.3876 12.9846 306° West  Level Estimated
Thu 11:48:00 PM 52.4513 12.8393 306° West  Level Estimated
Thu 11:49:00 PM 52.5148 12.6936 306° West  Level Estimated
Thu 11:50:00 PM 52.5782 12.5475 306° West  Level Estimated
Thu 11:51:00 PM 52.6413 12.4009 305° West  Level Estimated
Thu 11:52:00 PM 52.7043 12.2540 305° West  Level Estimated
Thu 11:53:00 PM 52.7671 12.1066 305° West  Level Estimated
Thu 11:54:00 PM 52.8297 11.9588 305° West  Level Estimated
Thu 11:55:00 PM 52.8921 11.8105 305° West  Level Estimated
Thu 11:56:00 PM 52.9544 11.6619 305° West  Level Estimated
Thu 11:57:00 PM 53.0164 11.5128 305° West  Level Estimated
Thu 11:58:00 PM 53.0783 11.3632 305° West  Level Estimated
Thu 11:59:00 PM 53.1400 11.2133 304° West  Level Estimated
Fri 12:00:00 AM 53.2015 11.0629 304° West  Level Estimated
Fri 12:01:00 AM 53.2628 10.9121 304° West  Level Estimated
Fri 12:02:00 AM 53.3239 10.7609 304° West  Level Estimated
Fri 12:03:00 AM 53.3848 10.6092 304° West  Level Estimated
Fri 12:04:00 AM 53.4455 10.4571 304° West  Level Estimated
Fri 12:05:00 AM 53.5061 10.3045 304° West  Level Estimated
Fri 12:06:00 AM 53.5664 10.1515 304° West  Level Estimated
Fri 12:07:00 AM 53.6265 9.9981 304° West  Level Estimated
Fri 12:08:00 AM 53.6304 9.9882 303° West  Level Estimated
Fri 12:09:00 AM 53.6304 9.9882 230° Southwest  Level Estimated
Fri 12:10:00 AM 53.6304 9.9882 230° Southwest  Level Estimated
Fri 12:11:00 AM 53.6304 9.9882 230° Southwest  Level Estimated
Fri 12:12:00 AM 53.6304 9.9882 230° Southwest  Level Estimated
Fri 12:13:00 AM 53.6304 9.9882 230° Southwest  Level Estimated
Fri 12:14:00 AM 53.6304 9.9882 230° Southwest  Level Estimated
Fri 12:15:00 AM 53.6304 9.9882 230° Southwest  Level Estimated
Fri 12:16:00 AM 53.6304 9.9882 230° Southwest  Level Estimated
Fri 12:17:00 AM 53.6304 9.9882 230° Southwest  Level Estimated
Fri 12:18:00 AM 53.6304 9.9882 230° Southwest  Level Estimated
Fri 12:19:00 AM 53.6304 9.9882 230° Southwest  Level Estimated
Fri 12:20:00 AM 53.6304 9.9882 230° Southwest  Level Estimated
Fri 12:21:00 AM 53.6304 9.9882 230° Southwest  Level Estimated
Fri 12:22:00 AM 53.6304 9.9882 230° Southwest  Level Estimated
Fri 12:23:00 AM 53.6304 9.9882 230° Southwest  Level Estimated

Login

Don't have an account? Register now (free) for customized features, flight alerts, and more!